Time;durP1;ratioP1;P1;durP2;ratioP2;P2;SDS_P1;SDS_P2;PMS_P1;PMS_P2;Temp;Humidity;BMP_temperature;BMP_pressure;BME280_temperature;BME280_humidity;BME280_pressure;Samples;Min_cycle;Max_cycle;Signal;HPM_P1;HPM_P2
2022/05/18 00:00:58;;;;;;;7.43;4.60;;;;;;;17.29;100.00;99678.09;5074417;28;20209;-74
2022/05/18 00:03:28;;;;;;;6.57;4.82;;;;;;;17.36;100.00;99678.44;5074958;28;20192;-76
2022/05/18 00:05:55;;;;;;;5.45;4.25;;;;;;;17.47;100.00;99692.84;5074852;28;20312;-76
2022/05/18 00:08:21;;;;;;;5.85;5.25;;;;;;;17.54;100.00;99693.19;5074582;28;20624;-75
2022/05/18 00:10:51;;;;;;;8.00;5.10;;;;;;;17.66;100.00;99692.16;5074686;28;20214;-75
2022/05/18 00:13:18;;;;;;;5.13;4.60;;;;;;;17.74;100.00;99696.06;5074670;28;20202;-75
2022/05/18 00:15:46;;;;;;;7.25;4.63;;;;;;;17.73;100.00;99697.94;5074387;28;20195;-76
2022/05/18 00:18:13;;;;;;;5.43;4.55;;;;;;;17.81;100.00;99689.09;5074159;28;20643;-75
2022/05/18 00:20:42;;;;;;;7.25;4.60;;;;;;;17.80;100.00;99692.81;5074216;28;20232;-75
2022/05/18 00:23:08;;;;;;;5.07;4.57;;;;;;;17.64;100.00;99691.41;5074104;28;20229;-75
2022/05/18 00:25:38;;;;;;;5.00;4.45;;;;;;;17.64;100.00;99691.41;5073877;28;20201;-75
2022/05/18 00:28:05;;;;;;;6.18;4.80;;;;;;;17.62;100.00;99690.69;5073994;28;20187;-75
2022/05/18 00:30:33;;;;;;;5.45;4.40;;;;;;;17.70;100.00;99695.44;5074012;28;20189;-75
2022/05/18 00:33:03;;;;;;;5.80;4.22;;;;;;;17.67;100.00;99698.44;5074160;28;20207;-75
2022/05/18 00:35:30;;;;;;;6.13;4.70;;;;;;;17.63;100.00;99697.84;5073983;28;20185;-75
2022/05/18 00:37:58;;;;;;;5.82;4.80;;;;;;;17.47;100.00;99700.16;5073992;28;20199;-74
2022/05/18 00:40:25;;;;;;;5.50;4.88;;;;;;;17.35;100.00;99698.50;5073783;28;20209;-74
2022/05/18 00:42:52;;;;;;;4.93;4.53;;;;;;;17.36;100.00;99705.66;5073998;28;20535;-75
2022/05/18 00:45:20;;;;;;;6.85;4.90;;;;;;;17.49;100.00;99704.47;5073783;28;20204;-76
2022/05/18 00:47:47;;;;;;;5.00;4.50;;;;;;;17.48;100.00;99704.63;5073620;28;20187;-75
2022/05/18 00:50:18;;;;;;;6.57;4.75;;;;;;;17.53;100.00;99709.66;5073615;28;20583;-76
2022/05/18 00:52:54;;;;;;;7.57;4.75;;;;;;;17.43;100.00;99709.56;5073516;28;20193;-76
2022/05/18 00:55:26;;;;;;;5.55;4.80;;;;;;;17.47;100.00;99708.31;5073636;28;20198;-75
2022/05/18 00:58:01;;;;;;;5.80;4.45;;;;;;;17.54;100.00;99700.50;5073818;28;20187;-74
2022/05/18 01:00:29;;;;;;;5.55;4.90;;;;;;;17.46;100.00;99698.44;5073608;28;20202;-75
2022/05/18 01:02:59;;;;;;;5.38;4.50;;;;;;;17.32;100.00;99712.34;5073684;28;20537;-75
2022/05/18 01:05:30;;;;;;;5.22;4.72;;;;;;;17.28;100.00;99699.00;5073390;28;20191;-75
2022/05/18 01:07:59;;;;;;;6.68;5.28;;;;;;;17.31;100.00;99697.88;5073248;28;20230;-74
2022/05/18 01:10:28;;;;;;;5.53;4.28;;;;;;;17.48;100.00;99701.91;5073282;28;20198;-74
2022/05/18 01:12:55;;;;;;;4.72;4.32;;;;;;;17.44;100.00;99690.41;5072913;28;20202;-76
2022/05/18 01:15:22;;;;;;;6.78;4.72;;;;;;;17.52;100.00;99692.44;5072966;28;20190;-75
2022/05/18 01:17:56;;;;;;;5.53;4.80;;;;;;;17.45;100.00;99702.13;5073275;28;20222;-75
2022/05/18 01:20:26;;;;;;;4.90;4.38;;;;;;;17.30;100.00;99699.72;5073187;28;20303;-75
2022/05/18 01:23:22;;;;;;;5.47;4.15;;;;;;;17.40;100.00;99705.25;5073232;28;20208;-75
2022/05/18 01:26:02;;;;;;;8.55;4.32;;;;;;;17.34;100.00;99704.91;5073421;28;20184;-75
2022/05/18 01:28:36;;;;;;;5.60;4.18;;;;;;;17.23;100.00;99714.84;5072740;28;20197;-74
2022/05/18 01:31:04;;;;;;;5.20;4.53;;;;;;;17.01;100.00;99709.47;5072874;28;20188;-75
2022/05/18 01:33:33;;;;;;;8.25;5.13;;;;;;;16.99;100.00;99722.34;5071881;28;20246;-73
2022/05/18 01:36:00;;;;;;;7.25;4.88;;;;;;;16.84;100.00;99719.88;5072974;28;20197;-74
2022/05/18 01:38:26;;;;;;;4.95;4.45;;;;;;;16.96;100.00;99733.44;5073011;28;20182;-75
2022/05/18 01:41:00;;;;;;;4.97;4.47;;;;;;;17.08;100.00;99719.72;5072634;28;20217;-75
2022/05/18 01:43:33;;;;;;;5.28;4.80;;;;;;;17.12;100.00;99731.22;5072853;28;20194;-75
2022/05/18 01:46:02;;;;;;;5.80;4.78;;;;;;;16.95;100.00;99731.75;5073097;28;20201;-75
2022/05/18 01:48:32;;;;;;;6.28;5.30;;;;;;;17.05;100.00;99730.00;5072469;28;20186;-75
2022/05/18 01:51:00;;;;;;;4.97;4.28;;;;;;;17.18;100.00;99732.53;5072185;28;20232;-74
2022/05/18 01:53:27;;;;;;;5.90;4.50;;;;;;;17.32;100.00;99739.56;5072701;28;20185;-74
2022/05/18 01:55:54;;;;;;;9.45;5.00;;;;;;;17.38;100.00;99739.03;5072659;28;20275;-74
2022/05/18 01:58:21;;;;;;;5.85;4.57;;;;;;;17.28;100.00;99728.06;5072219;28;20190;-75
2022/05/18 02:00:50;;;;;;;7.63;4.85;;;;;;;17.20;100.00;99736.00;5072571;28;20768;-75
2022/05/18 02:03:17;;;;;;;5.43;4.80;;;;;;;16.99;100.00;99735.94;5072176;28;20196;-73
2022/05/18 02:05:44;;;;;;;5.78;4.72;;;;;;;16.94;100.00;99735.47;5072589;28;20185;-74
2022/05/18 02:08:12;;;;;;;5.75;4.82;;;;;;;16.94;100.00;99740.91;5072685;28;20261;-74
2022/05/18 02:10:39;;;;;;;6.47;4.80;;;;;;;17.05;100.00;99746.31;5072700;28;20185;-74
2022/05/18 02:13:06;;;;;;;7.57;6.25;;;;;;;17.05;100.00;99744.47;5072556;28;20588;-75
2022/05/18 02:15:34;;;;;;;6.72;4.70;;;;;;;17.08;100.00;99740.63;5072323;28;20201;-75
2022/05/18 02:18:03;;;;;;;5.97;5.30;;;;;;;16.94;100.00;99741.75;5072313;28;20228;-75
2022/05/18 02:20:29;;;;;;;6.28;5.20;;;;;;;16.85;100.00;99737.09;5072528;28;20215;-75
2022/05/18 02:22:56;;;;;;;5.68;5.03;;;;;;;16.75;100.00;99746.94;5072564;28;20206;-75
2022/05/18 02:25:23;;;;;;;5.47;4.97;;;;;;;16.63;100.00;99748.81;5072707;28;20634;-75
2022/05/18 02:27:51;;;;;;;5.32;4.78;;;;;;;16.53;100.00;99748.69;5072493;28;20558;-74
2022/05/18 02:30:18;;;;;;;12.27;5.00;;;;;;;16.59;100.00;99744.59;5072113;28;20197;-75
2022/05/18 02:32:45;;;;;;;8.85;5.78;;;;;;;16.58;100.00;99742.88;5072405;28;20223;-75
2022/05/18 02:35:13;;;;;;;8.95;5.78;;;;;;;16.49;100.00;99749.91;5071944;28;20186;-74
2022/05/18 02:37:40;;;;;;;8.80;4.93;;;;;;;16.35;100.00;99745.59;5072241;28;20200;-74
2022/05/18 02:40:08;;;;;;;6.13;5.45;;;;;;;16.31;100.00;99752.25;5072717;28;20194;-75
2022/05/18 02:42:35;;;;;;;5.90;5.07;;;;;;;16.36;100.00;99750.03;5075971;28;20205;-76
2022/05/18 02:45:02;;;;;;;6.13;5.25;;;;;;;16.32;100.00;99753.97;5076113;28;20209;-76
2022/05/18 02:47:28;;;;;;;6.25;5.35;;;;;;;16.32;100.00;99756.69;5076340;28;20541;-75
2022/05/18 02:49:55;;;;;;;6.35;5.40;;;;;;;16.33;100.00;99753.00;5076037;28;20682;-75
2022/05/18 02:52:23;;;;;;;6.00;4.88;;;;;;;16.36;100.00;99758.19;5075665;28;20224;-74
2022/05/18 02:57:33;;;;;;;6.22;5.63;;;;;;;16.21;100.00;99756.69;5075813;28;20184;-76
2022/05/18 03:00:00;;;;;;;6.05;5.45;;;;;;;16.31;100.00;99762.25;5075813;28;20619;-75
2022/05/18 03:02:27;;;;;;;6.35;5.00;;;;;;;16.41;100.00;99761.38;5075815;28;20218;-75
2022/05/18 03:04:53;;;;;;;7.28;5.80;;;;;;;16.35;100.00;99761.91;5075531;28;20624;-76
2022/05/18 03:07:20;;;;;;;6.03;5.43;;;;;;;16.38;100.00;99772.50;5075846;28;20189;-75
2022/05/18 03:09:48;;;;;;;6.80;5.55;;;;;;;16.26;100.00;99765.34;5075468;28;20210;-74
2022/05/18 03:12:14;;;;;;;6.30;5.70;;;;;;;16.24;100.00;99767.31;5075249;28;20192;-74
2022/05/18 03:14:41;;;;;;;6.30;5.10;;;;;;;16.20;100.00;99772.13;5075581;28;20204;-74
2022/05/18 03:17:07;;;;;;;6.13;5.20;;;;;;;16.22;100.00;99761.13;5075587;28;20637;-75
2022/05/18 03:19:34;;;;;;;7.10;5.43;;;;;;;16.14;100.00;99769.00;5075524;28;20189;-75
2022/05/18 03:24:41;;;;;;;6.10;5.50;;;;;;;16.08;100.00;99772.19;5052470;28;20196;-75
2022/05/18 03:27:10;;;;;;;6.20;5.60;;;;;;;16.09;100.00;99772.09;5075266;28;20181;-74
2022/05/18 03:29:37;;;;;;;6.63;5.95;;;;;;;16.17;100.00;99780.50;5075263;28;20311;-74
2022/05/18 03:32:04;;;;;;;6.25;4.68;;;;;;;16.21;100.00;99779.28;5075187;28;20566;-74
2022/05/18 03:34:33;;;;;;;6.80;5.90;;;;;;;16.08;100.00;99775.81;5075062;28;20192;-76
2022/05/18 03:36:59;;;;;;;4.90;4.40;;;;;;;16.10;100.00;99781.09;5075307;28;20625;-75
2022/05/18 03:39:26;;;;;;;8.70;6.40;;;;;;;16.10;100.00;99782.00;5075149;28;20185;-75
2022/05/18 03:41:53;;;;;;;6.30;4.95;;;;;;;15.92;100.00;99787.00;5075121;28;20205;-75
2022/05/18 03:44:21;;;;;;;11.05;6.40;;;;;;;15.78;100.00;99776.31;5075247;28;20219;-75
2022/05/18 03:46:47;;;;;;;7.88;6.00;;;;;;;15.79;100.00;99780.78;5074582;28;20206;-75
2022/05/18 03:49:14;;;;;;;7.40;6.03;;;;;;;15.78;100.00;99782.63;5074774;28;20196;-75
2022/05/18 03:51:40;;;;;;;6.15;5.55;;;;;;;15.71;100.00;99783.22;5074017;28;20229;-75
2022/05/18 03:54:07;;;;;;;5.85;4.90;;;;;;;15.79;100.00;99780.78;5074396;28;20208;-75
2022/05/18 03:56:34;;;;;;;6.68;6.07;;;;;;;15.88;100.00;99780.06;5074783;28;20676;-74
2022/05/18 03:59:01;;;;;;;6.75;6.15;;;;;;;15.92;100.00;99780.69;5074589;28;20209;-75
2022/05/18 04:01:29;;;;;;;8.20;5.95;;;;;;;16.00;100.00;99773.66;5074671;28;20659;-75
2022/05/18 04:03:55;;;;;;;7.35;5.55;;;;;;;16.15;100.00;99785.19;5074526;28;20276;-74
2022/05/18 04:06:22;;;;;;;7.97;5.90;;;;;;;16.13;100.00;99784.47;5074740;28;20554;-74
2022/05/18 04:08:49;;;;;;;6.40;5.72;;;;;;;16.19;100.00;99777.66;5074261;28;20200;-74
2022/05/18 04:11:16;;;;;;;7.70;6.85;;;;;;;16.20;100.00;99779.41;5074520;28;20189;-74
2022/05/18 04:13:44;;;;;;;6.72;6.13;;;;;;;15.91;100.00;99789.81;5074675;28;20272;-74
2022/05/18 04:16:11;;;;;;;5.90;5.22;;;;;;;15.90;100.00;99788.97;5073933;28;20299;-74
2022/05/18 04:18:39;;;;;;;9.93;7.28;;;;;;;16.01;100.00;99794.44;5074431;28;20185;-74
2022/05/18 04:21:06;;;;;;;9.95;6.93;;;;;;;16.09;100.00;99790.25;5074011;28;20205;-75
2022/05/18 04:23:33;;;;;;;7.65;6.80;;;;;;;16.16;100.00;99791.50;5074069;28;20289;-74
2022/05/18 04:26:00;;;;;;;11.65;6.68;;;;;;;16.27;100.00;99792.38;5074346;28;20185;-75
2022/05/18 04:28:26;;;;;;;9.52;7.18;;;;;;;16.33;100.00;99793.75;5073955;28;20181;-74
2022/05/18 04:30:54;;;;;;;8.25;6.03;;;;;;;16.39;100.00;99787.84;5073842;28;20206;-75
2022/05/18 04:33:22;;;;;;;8.20;6.70;;;;;;;16.40;100.00;99802.28;5073532;28;20276;-74
2022/05/18 04:35:51;;;;;;;8.73;6.25;;;;;;;16.33;100.00;99799.19;5073988;28;20238;-75
2022/05/18 04:38:21;;;;;;;10.30;5.90;;;;;;;16.45;100.00;99798.22;5073792;28;20247;-74
2022/05/18 04:40:48;;;;;;;9.18;6.47;;;;;;;16.65;100.00;99807.50;5073607;28;20267;-75
2022/05/18 04:43:17;;;;;;;9.02;6.47;;;;;;;16.68;100.00;99809.09;5073860;28;20681;-74
2022/05/18 04:45:45;;;;;;;8.80;6.40;;;;;;;16.73;100.00;99809.59;5073900;28;20207;-75
2022/05/18 04:48:15;;;;;;;8.00;6.65;;;;;;;16.85;100.00;99815.94;5073956;28;20199;-75
2022/05/18 04:50:42;;;;;;;11.88;6.38;;;;;;;16.94;100.00;99811.63;5073344;28;20229;-75
2022/05/18 04:53:10;;;;;;;11.50;6.90;;;;;;;17.02;100.00;99811.84;5056695;28;20515;-74
2022/05/18 04:55:37;;;;;;;10.13;7.63;;;;;;;17.10;100.00;99806.66;5053073;28;20208;-75
2022/05/18 04:58:05;;;;;;;7.90;7.10;;;;;;;17.13;100.00;99809.09;5052809;28;20201;-75
2022/05/18 05:00:32;;;;;;;7.53;6.72;;;;;;;17.41;100.00;99821.31;5053354;28;20550;-75
2022/05/18 05:03:00;;;;;;;9.50;6.43;;;;;;;17.47;100.00;99820.78;5052052;28;20207;-74
2022/05/18 05:05:27;;;;;;;11.52;6.97;;;;;;;17.39;100.00;99823.31;5052805;28;20535;-74
2022/05/18 05:07:54;;;;;;;10.77;6.55;;;;;;;17.26;100.00;99828.03;5052537;28;20286;-76
2022/05/18 05:10:22;;;;;;;10.88;7.40;;;;;;;17.49;100.00;99828.84;5052989;28;20563;-75
2022/05/18 05:12:49;;;;;;;7.53;6.72;;;;;;;17.50;100.00;99833.28;5052828;28;20187;-76
2022/05/18 05:15:16;;;;;;;7.22;6.53;;;;;;;17.46;100.00;99829.94;5053014;28;20644;-74
2022/05/18 05:17:43;;;;;;;9.15;7.10;;;;;;;17.59;100.00;99834.38;5052520;28;20182;-75
2022/05/18 05:20:11;;;;;;;9.35;6.57;;;;;;;17.56;100.00;99835.47;5052631;28;20182;-74
2022/05/18 05:22:38;;;;;;;8.93;7.30;;;;;;;17.87;100.00;99846.56;5052509;28;20269;-75
2022/05/18 05:25:05;;;;;;;9.02;7.35;;;;;;;17.77;100.00;99840.97;5052372;28;20192;-75
2022/05/18 05:27:44;;;;;;;9.35;6.90;;;;;;;17.99;100.00;99842.78;5052275;28;20191;-76
2022/05/18 05:30:12;;;;;;;12.77;9.68;;;;;;;18.09;100.00;99835.56;5058589;28;20196;-75
2022/05/18 05:32:39;;;;;;;10.23;7.43;;;;;;;18.11;100.00;99836.31;5070296;28;20194;-75
2022/05/18 05:35:08;;;;;;;7.00;6.30;;;;;;;18.28;98.70;99829.38;5072232;28;20537;-76
2022/05/18 05:37:35;;;;;;;7.18;6.53;;;;;;;18.48;96.70;99833.13;5072552;28;20536;-75
2022/05/18 05:40:01;;;;;;;10.88;8.30;;;;;;;18.72;93.43;99846.47;5072522;28;20614;-76
2022/05/18 05:42:28;;;;;;;9.43;6.75;;;;;;;18.80;93.07;99834.03;5071934;28;20205;-75
2022/05/18 05:44:56;;;;;;;8.60;7.80;;;;;;;18.95;92.21;99833.53;5072190;28;20213;-76
2022/05/18 05:47:23;;;;;;;6.80;6.00;;;;;;;19.05;90.35;99833.56;5070847;28;20189;-75
2022/05/18 05:49:49;;;;;;;7.88;6.88;;;;;;;19.25;89.36;99837.22;5071993;28;20195;-75
2022/05/18 05:52:16;;;;;;;9.90;6.85;;;;;;;19.31;88.82;99835.78;5072214;28;20235;-75
2022/05/18 05:54:44;;;;;;;8.88;6.70;;;;;;;19.53;88.45;99835.56;5072430;28;20186;-75
2022/05/18 05:57:10;;;;;;;8.90;8.00;;;;;;;19.77;86.36;99837.94;5072179;28;20593;-75
2022/05/18 05:59:38;;;;;;;6.93;6.15;;;;;;;19.83;85.14;99841.97;5072163;28;20272;-75
2022/05/18 06:02:08;;;;;;;12.25;6.65;;;;;;;19.86;85.26;99843.56;5072008;28;20220;-75
2022/05/18 06:04:36;;;;;;;12.73;6.60;;;;;;;19.85;84.69;99848.13;5071130;28;20199;-75
2022/05/18 06:07:04;;;;;;;6.87;6.17;;;;;;;19.90;83.34;99850.44;5071858;28;20181;-76
2022/05/18 06:09:31;;;;;;;9.35;6.38;;;;;;;19.98;82.88;99851.44;5071606;28;20439;-75
2022/05/18 06:11:58;;;;;;;6.63;5.90;;;;;;;20.37;80.85;99851.47;5071644;28;20184;-75
2022/05/18 06:14:27;;;;;;;9.32;5.50;;;;;;;20.49;79.71;99854.03;5072291;28;20532;-75
2022/05/18 06:16:54;;;;;;;6.20;5.60;;;;;;;20.44;79.02;99848.97;5076206;28;20189;-76
2022/05/18 06:19:22;;;;;;;7.47;5.70;;;;;;;20.59;78.54;99854.91;5075433;28;21271;-76
2022/05/18 06:21:50;;;;;;;5.77;5.00;;;;;;;20.70;78.24;99841.03;5075681;28;20470;-75
2022/05/18 06:24:18;;;;;;;5.77;5.27;;;;;;;20.87;76.86;99863.16;5075809;28;20435;-75
2022/05/18 06:26:45;;;;;;;6.03;5.40;;;;;;;20.82;77.21;99858.13;5075319;28;20526;-76
2022/05/18 06:29:11;;;;;;;8.17;6.83;;;;;;;21.09;75.89;99857.31;5075007;28;20441;-75
2022/05/18 06:31:38;;;;;;;6.20;5.17;;;;;;;20.96;76.91;99856.78;5075299;28;20534;-76
2022/05/18 06:34:05;;;;;;;5.83;5.13;;;;;;;21.11;76.74;99859.91;5076001;28;20427;-76
2022/05/18 06:36:34;;;;;;;7.20;6.53;;;;;;;21.28;75.38;99867.34;5073968;28;20451;-75
2022/05/18 06:39:01;;;;;;;6.83;6.17;;;;;;;21.36;74.62;99855.63;5074917;28;20513;-76
2022/05/18 06:41:27;;;;;;;6.90;5.50;;;;;;;21.45;74.32;99862.94;5075182;28;20529;-76
2022/05/18 06:43:56;;;;;;;6.00;5.30;;;;;;;21.50;74.00;99857.00;5074282;28;20471;-75
2022/05/18 06:46:24;;;;;;;7.03;5.20;;;;;;;21.73;73.30;99855.56;5075124;28;20481;-74
2022/05/18 06:48:51;;;;;;;7.60;5.63;;;;;;;21.95;71.79;99851.50;5075205;28;20522;-75
2022/05/18 06:51:21;;;;;;;8.80;5.70;;;;;;;22.06;70.54;99855.91;5075032;28;20886;-76
2022/05/18 06:53:51;;;;;;;10.00;5.73;;;;;;;22.07;70.92;99860.38;5069430;28;20446;-76
2022/05/18 06:56:19;;;;;;;9.13;4.97;;;;;;;22.19;70.64;99861.00;5054776;28;21205;-76
2022/05/18 06:58:47;;;;;;;8.73;5.80;;;;;;;22.35;69.67;99861.16;5055148;28;20849;-76
2022/05/18 07:01:13;;;;;;;9.60;5.73;;;;;;;22.31;69.12;99858.91;5066315;28;20465;-72
2022/05/18 07:03:40;;;;;;;7.77;5.60;;;;;;;22.07;71.04;99857.63;5073784;28;20472;-71
2022/05/18 07:06:08;;;;;;;5.43;4.93;;;;;;;22.33;69.92;99860.44;5074010;28;20426;-72
2022/05/18 07:08:34;;;;;;;6.17;4.70;;;;;;;22.63;68.64;99850.91;5073886;28;20434;-71
2022/05/18 07:11:03;;;;;;;9.97;5.67;;;;;;;22.92;66.92;99857.94;5073973;28;20454;-72
2022/05/18 07:13:30;;;;;;;5.80;4.77;;;;;;;22.98;67.11;99854.56;5074600;28;20483;-72
2022/05/18 07:15:57;;;;;;;8.10;6.00;;;;;;;23.12;66.93;99855.03;5074556;28;20889;-71
2022/05/18 07:18:29;;;;;;;7.33;4.70;;;;;;;23.18;66.05;99854.34;5074005;28;20458;-71
2022/05/18 07:20:56;;;;;;;6.13;4.50;;;;;;;23.30;66.15;99855.78;5073195;28;20458;-71
2022/05/18 07:23:23;;;;;;;7.50;4.90;;;;;;;23.68;64.43;99857.13;5074273;28;20974;-72
2022/05/18 07:25:49;;;;;;;9.67;4.97;;;;;;;24.69;59.63;99856.06;5073502;28;20445;-76
2022/05/18 07:28:17;;;;;;;6.40;5.47;;;;;;;26.02;53.74;99857.28;5073214;28;20450;-76
2022/05/18 07:30:44;;;;;;;10.40;6.20;;;;;;;26.74;51.10;99863.25;5072460;28;20499;-76
2022/05/18 07:33:11;;;;;;;4.60;4.20;;;;;;;26.65;50.75;99861.63;5072998;28;20785;-76
2022/05/18 07:35:38;;;;;;;4.63;4.23;;;;;;;26.20;52.21;99863.34;5073299;28;20439;-77
2022/05/18 07:38:05;;;;;;;6.90;4.70;;;;;;;25.61;53.92;99860.25;5071774;28;20526;-77
2022/05/18 07:40:33;;;;;;;4.73;4.30;;;;;;;25.40;55.40;99861.75;5073430;28;20449;-76
2022/05/18 07:43:01;;;;;;;5.30;4.80;;;;;;;24.94;57.73;99862.38;5073386;28;20612;-76
2022/05/18 07:45:29;;;;;;;5.03;4.57;;;;;;;24.92;55.88;99849.81;5074014;28;20463;-77
2022/05/18 07:47:56;;;;;;;5.10;4.10;;;;;;;25.10;54.59;99855.09;5073792;28;20438;-77
2022/05/18 07:50:24;;;;;;;6.77;5.03;;;;;;;25.18;54.21;99855.06;5071679;28;20450;-76
2022/05/18 07:52:52;;;;;;;4.40;4.00;;;;;;;25.36;54.18;99861.22;5072016;28;20431;-76
2022/05/18 07:55:19;;;;;;;4.50;4.10;;;;;;;25.38;53.97;99856.41;5074179;28;20435;-77
2022/05/18 07:57:46;;;;;;;8.80;4.63;;;;;;;25.29;54.72;99853.88;5073790;28;20447;-77
2022/05/18 08:00:15;;;;;;;6.03;3.83;;;;;;;25.13;55.51;99852.00;5072425;28;20442;-78
2022/05/18 08:02:43;;;;;;;3.93;3.63;;;;;;;25.30;55.48;99850.06;5073463;28;20505;-77
2022/05/18 08:05:10;;;;;;;7.10;5.07;;;;;;;25.32;55.26;99850.75;5074212;28;20755;-76
2022/05/18 08:07:37;;;;;;;4.87;3.77;;;;;;;25.41;54.48;99851.56;5074075;28;20911;-76
2022/05/18 08:15:33;;;;;;;5.33;4.13;;;;;;;25.62;53.30;99846.31;5072173;28;20422;-76
2022/05/18 08:18:01;;;;;;;5.20;4.50;;;;;;;25.79;52.80;99852.56;5071960;28;20431;-75
2022/05/18 08:20:29;;;;;;;6.20;5.60;;;;;;;25.88;52.43;99845.13;5072761;28;22104;-77
2022/05/18 08:22:56;;;;;;;5.17;4.67;;;;;;;26.10;52.67;99851.72;5073203;28;20471;-76
2022/05/18 08:25:22;;;;;;;7.83;4.30;;;;;;;26.19;51.38;99856.13;5073826;28;20438;-77
2022/05/18 08:27:50;;;;;;;6.10;4.93;;;;;;;26.14;51.49;99859.44;5073596;28;20802;-77
2022/05/18 08:30:19;;;;;;;6.70;6.00;;;;;;;26.28;51.12;99855.03;5077625;28;20439;-76
2022/05/18 08:32:46;;;;;;;9.80;5.17;;;;;;;26.33;51.16;99852.56;5071997;28;20432;-77
2022/05/18 08:35:15;;;;;;;6.30;4.70;;;;;;;26.00;52.06;99858.34;5072925;28;20439;-76
2022/05/18 08:37:43;;;;;;;4.87;4.37;;;;;;;26.34;51.64;99861.69;5073338;28;20446;-76
2022/05/18 08:40:38;;;;;;;4.93;4.27;;;;;;;26.51;51.26;99854.16;5077155;28;20437;-78
2022/05/18 08:43:08;;;;;;;4.80;4.40;;;;;;;26.71;50.76;99860.88;5085411;28;20828;-75
2022/05/18 08:45:37;;;;;;;4.77;4.33;;;;;;;26.68;49.58;99858.47;5073764;28;20433;-76
2022/05/18 08:48:06;;;;;;;5.53;4.90;;;;;;;26.82;49.01;99863.19;5078853;28;20458;-76
2022/05/18 08:50:38;;;;;;;4.47;4.07;;;;;;;26.82;49.03;99856.81;5074576;28;20462;-77
2022/05/18 08:53:19;;;;;;;6.70;4.27;;;;;;;26.86;48.52;99854.53;5053420;28;20424;-76
2022/05/18 08:55:54;;;;;;;4.57;4.00;;;;;;;26.87;47.65;99856.25;5053268;28;20413;-77
2022/05/18 08:58:31;;;;;;;4.93;4.20;;;;;;;26.90;48.57;99859.47;5075833;28;20506;-77
2022/05/18 09:01:01;;;;;;;5.23;4.40;;;;;;;26.78;48.26;99853.56;5072285;28;20439;-75
2022/05/18 09:03:34;;;;;;;6.60;5.13;;;;;;;26.93;48.03;99856.34;5071535;28;20467;-77
2022/05/18 09:06:12;;;;;;;4.00;3.70;;;;;;;27.02;47.89;99859.84;5072528;28;20438;-76
2022/05/18 09:08:42;;;;;;;5.50;5.00;;;;;;;27.15;48.39;99850.91;5071863;28;20436;-76
2022/05/18 09:11:12;;;;;;;7.93;4.23;;;;;;;27.23;47.94;99845.34;5073067;28;20442;-76
2022/05/18 09:13:38;;;;;;;6.50;4.17;;;;;;;27.44;47.74;99850.06;5072649;28;20537;-76
2022/05/18 09:16:14;;;;;;;7.00;6.30;;;;;;;27.65;47.75;99849.25;5072038;28;20436;-77
2022/05/18 09:18:47;;;;;;;5.57;5.07;;;;;;;27.59;47.22;99839.84;5071619;28;20431;-75
2022/05/18 09:21:28;;;;;;;4.87;4.37;;;;;;;27.83;46.32;99843.31;5071618;28;20932;-76
2022/05/18 09:24:08;;;;;;;5.00;4.13;;;;;;;27.70;46.29;99841.25;5052510;28;20957;-77
2022/05/18 09:27:00;;;;;;;6.40;3.80;;;;;;;27.48;47.03;99840.34;5051760;28;20447;-77
2022/05/18 09:29:37;;;;;;;8.53;5.07;;;;;;;27.65;47.05;99835.44;5067061;28;20522;-77
2022/05/18 09:32:17;;;;;;;5.53;4.53;;;;;;;27.53;47.28;99840.63;5072266;28;20434;-76
2022/05/18 09:35:00;;;;;;;5.10;4.60;;;;;;;27.61;47.24;99832.22;5071510;28;20463;-77
2022/05/18 09:37:32;;;;;;;6.50;4.97;;;;;;;27.77;47.24;99838.53;5071946;28;20450;-75
2022/05/18 09:40:06;;;;;;;8.73;4.30;;;;;;;27.93;47.29;99831.94;5071584;28;20518;-77
2022/05/18 09:42:36;;;;;;;4.93;4.27;;;;;;;28.03;47.12;99836.09;5072038;28;20431;-76
2022/05/18 09:45:07;;;;;;;6.33;4.50;;;;;;;28.01;46.31;99832.69;5072061;28;20814;-77
2022/05/18 09:47:40;;;;;;;4.20;3.80;;;;;;;27.93;46.69;99830.06;5072143;28;20445;-77
2022/05/18 09:50:08;;;;;;;5.27;4.60;;;;;;;27.66;47.97;99826.09;5071240;28;20427;-79
2022/05/18 09:52:38;;;;;;;5.00;4.50;;;;;;;27.81;48.19;99826.03;5071582;28;20557;-77
2022/05/18 09:55:08;;;;;;;7.43;4.67;;;;;;;28.14;47.01;99831.97;5072162;28;20442;-77
2022/05/18 09:57:39;;;;;;;6.60;5.97;;;;;;;28.21;47.17;99830.13;5072674;28;20442;-77
2022/05/18 10:00:11;;;;;;;5.90;5.40;;;;;;;28.10;47.44;99832.56;5071796;28;20518;-77
2022/05/18 10:08:37;;;;;;;5.23;4.73;;;;;;;28.45;46.42;99819.69;5056479;28;20961;-76
2022/05/18 10:11:06;;;;;;;5.97;4.87;;;;;;;28.43;45.59;99817.13;5071389;28;20431;-75
2022/05/18 10:13:37;;;;;;;7.53;4.80;;;;;;;28.60;44.85;99811.31;5071811;28;20435;-76
2022/05/18 10:16:07;;;;;;;9.23;4.20;;;;;;;28.34;44.85;99817.47;5072339;28;20434;-76
2022/05/18 10:18:41;;;;;;;6.93;4.17;;;;;;;28.20;44.92;99817.34;5071952;28;20964;-76
2022/05/18 10:21:26;;;;;;;6.97;4.63;;;;;;;28.25;44.19;99819.50;5072130;28;20530;-75
2022/05/18 10:24:02;;;;;;;5.83;4.60;;;;;;;28.55;43.63;99802.75;5071652;28;20536;-76
2022/05/18 10:26:32;;;;;;;4.80;4.23;;;;;;;28.69;43.44;99804.56;5071165;28;20442;-76
2022/05/18 10:29:01;;;;;;;6.07;5.50;;;;;;;28.72;42.68;99808.84;5071529;28;20442;-76
2022/05/18 10:31:32;;;;;;;4.63;4.17;;;;;;;28.80;42.68;99804.00;5071352;28;20443;-77
2022/05/18 10:34:12;;;;;;;4.20;3.80;;;;;;;28.83;42.57;99817.47;5072031;28;20484;-76
2022/05/18 10:36:43;;;;;;;6.80;4.10;;;;;;;28.84;41.64;99807.22;5072131;28;20782;-76
2022/05/18 10:39:11;;;;;;;4.10;3.70;;;;;;;28.61;41.72;99808.34;5071753;28;20446;-76
2022/05/18 10:41:41;;;;;;;4.50;4.03;;;;;;;28.69;41.27;99815.63;5072068;28;20911;-77
2022/05/18 10:44:16;;;;;;;4.27;3.50;;;;;;;28.60;41.12;99808.53;5071337;28;20466;-76
2022/05/18 10:46:45;;;;;;;6.33;3.70;;;;;;;28.85;40.83;99801.50;5071444;28;20809;-76
2022/05/18 10:49:27;;;;;;;4.10;3.43;;;;;;;28.96;39.54;99804.75;5072001;28;20431;-76
2022/05/18 10:51:54;;;;;;;6.30;3.90;;;;;;;28.95;39.18;99797.50;5072097;28;20498;-77
2022/05/18 10:54:26;;;;;;;4.87;3.60;;;;;;;28.89;39.41;99796.38;5072255;28;20493;-76
2022/05/18 10:56:54;;;;;;;8.13;5.67;;;;;;;29.02;39.24;99788.16;5072290;28;20518;-77
2022/05/18 10:59:36;;;;;;;6.67;5.30;;;;;;;29.05;39.59;99781.34;5071726;28;20521;-77
2022/05/18 11:02:09;;;;;;;6.03;3.90;;;;;;;29.26;39.97;99784.03;5073818;28;20419;-77
2022/05/18 11:04:49;;;;;;;4.47;3.80;;;;;;;29.37;39.83;99782.56;5075481;28;20470;-78
2022/05/18 11:07:15;;;;;;;4.23;3.60;;;;;;;29.57;39.48;99774.34;5055084;28;20493;-77
2022/05/18 11:09:44;;;;;;;5.50;4.00;;;;;;;29.70;39.26;99779.09;5054458;28;20447;-77
2022/05/18 11:12:27;;;;;;;4.00;3.50;;;;;;;29.58;39.17;99770.50;5058345;28;20447;-77
2022/05/18 11:14:58;;;;;;;10.33;4.13;;;;;;;29.29;39.46;99764.22;5055573;28;20424;-77
2022/05/18 11:17:40;;;;;;;4.90;3.93;;;;;;;29.65;38.85;99765.84;5055647;28;20767;-77
2022/05/18 11:20:21;;;;;;;4.33;3.60;;;;;;;29.77;38.40;99762.47;5054717;28;20471;-77
2022/05/18 11:22:58;;;;;;;4.40;4.00;;;;;;;29.81;38.45;99761.84;5054414;28;20892;-77
2022/05/18 11:25:34;;;;;;;6.43;5.27;;;;;;;29.84;38.53;99760.56;5054343;28;20428;-78
2022/05/18 11:28:12;;;;;;;6.73;3.80;;;;;;;29.86;38.29;99756.50;5060535;28;20433;-76
2022/05/18 11:30:42;;;;;;;5.57;3.87;;;;;;;29.66;38.39;99761.97;5074265;28;20429;-78
2022/05/18 11:33:19;;;;;;;5.33;3.80;;;;;;;29.49;38.82;99750.41;5072475;28;20439;-78
2022/05/18 11:35:59;;;;;;;6.00;3.90;;;;;;;29.21;39.60;99752.44;5053529;28;20434;-77
2022/05/18 11:38:54;;;;;;;3.43;2.80;;;;;;;29.55;38.56;99753.41;5054479;28;20424;-77
2022/05/18 11:41:35;;;;;;;4.53;3.47;;;;;;;29.83;38.06;99747.75;5054555;28;20435;-77
2022/05/18 11:44:06;;;;;;;5.20;3.70;;;;;;;29.85;37.51;99754.81;5061043;28;20468;-77
2022/05/18 11:46:45;;;;;;;4.73;3.70;;;;;;;29.84;37.02;99749.47;5074257;28;20872;-77
2022/05/18 11:49:18;;;;;;;6.47;3.30;;;;;;;29.79;37.63;99744.53;5074612;28;20434;-77
2022/05/18 11:51:57;;;;;;;6.10;3.80;;;;;;;29.68;37.97;99742.38;5074180;28;20480;-77
2022/05/18 11:54:36;;;;;;;7.17;3.70;;;;;;;29.42;38.09;99737.56;5074338;28;20912;-76
2022/05/18 11:57:17;;;;;;;3.70;3.30;;;;;;;29.13;38.05;99723.00;5074468;28;20434;-77